sensor_id;sensor_type;location;lat;lon;timestamp;P1;durP1;ratioP1;P2;durP2;ratioP2
49826;SDS011;35715;51.570;6.036;2023-06-14T00:00:32;7.85;;;6.00;;
49826;SDS011;35715;51.570;6.036;2023-06-14T00:02:59;9.77;;;6.20;;
49826;SDS011;35715;51.570;6.036;2023-06-14T00:05:47;13.15;;;5.88;;
49826;SDS011;35715;51.570;6.036;2023-06-14T00:08:13;6.30;;;5.65;;
49826;SDS011;35715;51.570;6.036;2023-06-14T00:13:23;7.78;;;5.82;;
49826;SDS011;35715;51.570;6.036;2023-06-14T00:15:48;10.77;;;6.28;;
49826;SDS011;35715;51.570;6.036;2023-06-14T00:18:13;9.32;;;5.85;;
49826;SDS011;35715;51.570;6.036;2023-06-14T00:20:39;17.58;;;5.68;;
49826;SDS011;35715;51.570;6.036;2023-06-14T00:23:07;9.05;;;6.18;;
49826;SDS011;35715;51.570;6.036;2023-06-14T00:25:52;9.48;;;6.10;;
49826;SDS011;35715;51.570;6.036;2023-06-14T00:28:17;10.65;;;5.20;;
49826;SDS011;35715;51.570;6.036;2023-06-14T00:30:42;16.20;;;6.85;;
49826;SDS011;35715;51.570;6.036;2023-06-14T00:33:26;5.63;;;5.03;;
49826;SDS011;35715;51.570;6.036;2023-06-14T00:38:36;8.27;;;4.82;;
49826;SDS011;35715;51.570;6.036;2023-06-14T00:41:01;6.03;;;5.43;;
49826;SDS011;35715;51.570;6.036;2023-06-14T00:43:46;7.40;;;5.10;;
49826;SDS011;35715;51.570;6.036;2023-06-14T00:46:30;12.63;;;7.47;;
49826;SDS011;35715;51.570;6.036;2023-06-14T00:48:56;13.07;;;6.68;;
49826;SDS011;35715;51.570;6.036;2023-06-14T00:51:23;5.63;;;4.93;;
49826;SDS011;35715;51.570;6.036;2023-06-14T00:53:53;5.63;;;5.07;;
49826;SDS011;35715;51.570;6.036;2023-06-14T00:56:19;8.27;;;5.05;;
49826;SDS011;35715;51.570;6.036;2023-06-14T00:58:45;8.35;;;4.82;;
49826;SDS011;35715;51.570;6.036;2023-06-14T01:01:30;30.50;;;6.03;;
49826;SDS011;35715;51.570;6.036;2023-06-14T01:04:09;6.40;;;5.28;;
49826;SDS011;35715;51.570;6.036;2023-06-14T01:09:15;6.88;;;5.45;;
49826;SDS011;35715;51.570;6.036;2023-06-14T01:14:46;11.88;;;4.72;;
49826;SDS011;35715;51.570;6.036;2023-06-14T01:17:13;6.10;;;5.30;;
49826;SDS011;35715;51.570;6.036;2023-06-14T01:19:44;6.28;;;4.57;;
49826;SDS011;35715;51.570;6.036;2023-06-14T01:22:11;8.90;;;4.93;;
49826;SDS011;35715;51.570;6.036;2023-06-14T01:24:37;6.18;;;4.30;;
49826;SDS011;35715;51.570;6.036;2023-06-14T01:27:04;5.13;;;4.30;;
49826;SDS011;35715;51.570;6.036;2023-06-14T01:29:32;7.05;;;4.72;;
49826;SDS011;35715;51.570;6.036;2023-06-14T01:32:11;4.97;;;4.47;;
49826;SDS011;35715;51.570;6.036;2023-06-14T01:34:37;5.22;;;4.20;;
49826;SDS011;35715;51.570;6.036;2023-06-14T01:37:02;16.42;;;5.13;;
49826;SDS011;35715;51.570;6.036;2023-06-14T01:39:28;29.65;;;6.55;;
49826;SDS011;35715;51.570;6.036;2023-06-14T01:41:55;4.90;;;3.90;;
49826;SDS011;35715;51.570;6.036;2023-06-14T01:44:23;5.45;;;4.78;;
49826;SDS011;35715;51.570;6.036;2023-06-14T01:46:49;7.35;;;4.95;;
49826;SDS011;35715;51.570;6.036;2023-06-14T01:49:16;4.25;;;3.75;;
49826;SDS011;35715;51.570;6.036;2023-06-14T01:51:41;6.38;;;3.85;;
49826;SDS011;35715;51.570;6.036;2023-06-14T01:56:59;6.05;;;4.80;;
49826;SDS011;35715;51.570;6.036;2023-06-14T01:59:24;6.78;;;4.38;;
49826;SDS011;35715;51.570;6.036;2023-06-14T02:01:50;4.88;;;4.47;;
49826;SDS011;35715;51.570;6.036;2023-06-14T02:04:16;9.65;;;4.90;;
49826;SDS011;35715;51.570;6.036;2023-06-14T02:06:41;6.63;;;5.15;;
49826;SDS011;35715;51.570;6.036;2023-06-14T02:09:07;4.38;;;3.92;;
49826;SDS011;35715;51.570;6.036;2023-06-14T02:11:32;5.30;;;4.80;;
49826;SDS011;35715;51.570;6.036;2023-06-14T02:13:57;5.10;;;3.85;;
49826;SDS011;35715;51.570;6.036;2023-06-14T02:16:24;6.35;;;3.58;;
49826;SDS011;35715;51.570;6.036;2023-06-14T02:18:52;5.38;;;4.32;;
49826;SDS011;35715;51.570;6.036;2023-06-14T02:21:18;26.20;;;6.53;;
49826;SDS011;35715;51.570;6.036;2023-06-14T02:23:43;7.22;;;4.35;;
49826;SDS011;35715;51.570;6.036;2023-06-14T02:26:09;10.00;;;5.07;;
49826;SDS011;35715;51.570;6.036;2023-06-14T02:28:34;4.63;;;4.22;;
49826;SDS011;35715;51.570;6.036;2023-06-14T02:31:00;3.80;;;3.22;;
49826;SDS011;35715;51.570;6.036;2023-06-14T02:33:27;9.30;;;4.72;;
49826;SDS011;35715;51.570;6.036;2023-06-14T02:35:52;6.82;;;5.20;;
49826;SDS011;35715;51.570;6.036;2023-06-14T02:38:17;7.10;;;4.03;;
49826;SDS011;35715;51.570;6.036;2023-06-14T02:40:43;9.68;;;5.03;;
49826;SDS011;35715;51.570;6.036;2023-06-14T02:45:58;7.57;;;4.75;;
49826;SDS011;35715;51.570;6.036;2023-06-14T02:48:24;6.22;;;4.40;;
49826;SDS011;35715;51.570;6.036;2023-06-14T02:51:08;4.65;;;4.22;;
49826;SDS011;35715;51.570;6.036;2023-06-14T02:53:35;4.35;;;3.95;;
49826;SDS011;35715;51.570;6.036;2023-06-14T02:56:01;5.45;;;4.18;;
49826;SDS011;35715;51.570;6.036;2023-06-14T02:58:29;5.45;;;4.38;;
49826;SDS011;35715;51.570;6.036;2023-06-14T03:03:47;7.18;;;5.00;;
49826;SDS011;35715;51.570;6.036;2023-06-14T03:06:13;9.60;;;3.95;;
49826;SDS011;35715;51.570;6.036;2023-06-14T03:08:39;5.50;;;4.88;;
49826;SDS011;35715;51.570;6.036;2023-06-14T03:11:06;6.97;;;4.53;;
49826;SDS011;35715;51.570;6.036;2023-06-14T03:13:33;5.50;;;4.95;;
49826;SDS011;35715;51.570;6.036;2023-06-14T03:15:59;6.68;;;5.38;;
49826;SDS011;35715;51.570;6.036;2023-06-14T03:18:43;6.65;;;4.47;;
49826;SDS011;35715;51.570;6.036;2023-06-14T03:21:08;4.93;;;4.47;;
49826;SDS011;35715;51.570;6.036;2023-06-14T03:23:44;8.65;;;4.97;;
49826;SDS011;35715;51.570;6.036;2023-06-14T03:26:09;4.95;;;4.05;;
49826;SDS011;35715;51.570;6.036;2023-06-14T03:28:38;7.70;;;4.07;;
49826;SDS011;35715;51.570;6.036;2023-06-14T03:31:03;7.00;;;4.25;;
49826;SDS011;35715;51.570;6.036;2023-06-14T03:33:45;5.45;;;4.85;;
49826;SDS011;35715;51.570;6.036;2023-06-14T03:36:10;39.67;;;5.43;;
49826;SDS011;35715;51.570;6.036;2023-06-14T03:38:36;8.65;;;4.95;;
49826;SDS011;35715;51.570;6.036;2023-06-14T03:41:01;6.05;;;4.20;;
49826;SDS011;35715;51.570;6.036;2023-06-14T03:43:41;5.50;;;4.47;;
49826;SDS011;35715;51.570;6.036;2023-06-14T03:46:06;4.57;;;4.18;;
49826;SDS011;35715;51.570;6.036;2023-06-14T03:48:32;8.70;;;5.07;;
49826;SDS011;35715;51.570;6.036;2023-06-14T03:50:57;9.38;;;5.18;;
49826;SDS011;35715;51.570;6.036;2023-06-14T03:53:26;8.00;;;4.03;;
49826;SDS011;35715;51.570;6.036;2023-06-14T03:56:14;5.93;;;4.47;;
49826;SDS011;35715;51.570;6.036;2023-06-14T03:58:39;7.78;;;4.20;;
49826;SDS011;35715;51.570;6.036;2023-06-14T04:01:05;7.07;;;4.25;;
49826;SDS011;35715;51.570;6.036;2023-06-14T04:03:34;6.22;;;5.15;;
49826;SDS011;35715;51.570;6.036;2023-06-14T04:05:59;5.07;;;4.63;;
49826;SDS011;35715;51.570;6.036;2023-06-14T04:08:44;7.47;;;4.35;;
49826;SDS011;35715;51.570;6.036;2023-06-14T04:11:10;7.75;;;4.60;;
49826;SDS011;35715;51.570;6.036;2023-06-14T04:16:21;4.15;;;3.72;;
49826;SDS011;35715;51.570;6.036;2023-06-14T04:21:31;10.35;;;6.05;;
49826;SDS011;35715;51.570;6.036;2023-06-14T04:24:18;8.35;;;5.78;;
49826;SDS011;35715;51.570;6.036;2023-06-14T04:26:44;7.28;;;3.97;;
49826;SDS011;35715;51.570;6.036;2023-06-14T04:29:10;6.40;;;4.15;;
49826;SDS011;35715;51.570;6.036;2023-06-14T04:31:39;3.67;;;3.38;;
49826;SDS011;35715;51.570;6.036;2023-06-14T04:36:40;5.50;;;3.55;;
49826;SDS011;35715;51.570;6.036;2023-06-14T04:39:08;6.00;;;4.50;;
49826;SDS011;35715;51.570;6.036;2023-06-14T04:41:33;7.10;;;4.07;;
49826;SDS011;35715;51.570;6.036;2023-06-14T04:44:21;4.97;;;4.47;;
49826;SDS011;35715;51.570;6.036;2023-06-14T04:46:49;8.38;;;5.20;;
49826;SDS011;35715;51.570;6.036;2023-06-14T04:49:15;6.20;;;3.95;;
49826;SDS011;35715;51.570;6.036;2023-06-14T04:51:41;4.97;;;4.47;;
49826;SDS011;35715;51.570;6.036;2023-06-14T04:54:13;7.10;;;3.90;;
49826;SDS011;35715;51.570;6.036;2023-06-14T04:56:44;6.80;;;4.60;;
49826;SDS011;35715;51.570;6.036;2023-06-14T05:02:27;7.47;;;4.18;;
49826;SDS011;35715;51.570;6.036;2023-06-14T05:05:12;11.32;;;4.68;;
49826;SDS011;35715;51.570;6.036;2023-06-14T05:07:56;5.55;;;3.35;;
49826;SDS011;35715;51.570;6.036;2023-06-14T05:10:21;5.72;;;3.60;;
49826;SDS011;35715;51.570;6.036;2023-06-14T05:15:48;7.55;;;3.78;;
49826;SDS011;35715;51.570;6.036;2023-06-14T05:18:14;5.47;;;3.78;;
49826;SDS011;35715;51.570;6.036;2023-06-14T05:20:39;5.97;;;3.63;;
49826;SDS011;35715;51.570;6.036;2023-06-14T05:26:03;8.73;;;4.15;;
49826;SDS011;35715;51.570;6.036;2023-06-14T05:28:32;7.25;;;4.18;;
49826;SDS011;35715;51.570;6.036;2023-06-14T05:31:01;3.47;;;3.17;;
49826;SDS011;35715;51.570;6.036;2023-06-14T05:33:29;4.93;;;4.43;;
49826;SDS011;35715;51.570;6.036;2023-06-14T05:35:54;4.70;;;3.80;;
49826;SDS011;35715;51.570;6.036;2023-06-14T05:38:23;13.52;;;3.35;;
49826;SDS011;35715;51.570;6.036;2023-06-14T05:40:48;4.82;;;3.97;;
49826;SDS011;35715;51.570;6.036;2023-06-14T05:43:16;10.02;;;4.47;;
49826;SDS011;35715;51.570;6.036;2023-06-14T05:45:46;5.90;;;4.03;;
49826;SDS011;35715;51.570;6.036;2023-06-14T05:48:33;8.52;;;3.58;;
49826;SDS011;35715;51.570;6.036;2023-06-14T05:50:59;7.20;;;3.83;;
49826;SDS011;35715;51.570;6.036;2023-06-14T05:53:25;6.28;;;3.42;;
49826;SDS011;35715;51.570;6.036;2023-06-14T05:55:50;8.05;;;3.05;;
49826;SDS011;35715;51.570;6.036;2023-06-14T06:01:02;5.03;;;3.15;;
49826;SDS011;35715;51.570;6.036;2023-06-14T06:03:30;8.68;;;4.25;;
49826;SDS011;35715;51.570;6.036;2023-06-14T06:05:56;18.42;;;4.00;;
49826;SDS011;35715;51.570;6.036;2023-06-14T06:11:25;7.03;;;4.10;;
49826;SDS011;35715;51.570;6.036;2023-06-14T06:14:09;10.65;;;3.05;;
49826;SDS011;35715;51.570;6.036;2023-06-14T06:16:34;9.80;;;3.35;;
49826;SDS011;35715;51.570;6.036;2023-06-14T06:19:00;9.60;;;2.90;;
49826;SDS011;35715;51.570;6.036;2023-06-14T06:21:26;3.20;;;2.90;;
49826;SDS011;35715;51.570;6.036;2023-06-14T06:23:51;8.70;;;3.35;;
49826;SDS011;35715;51.570;6.036;2023-06-14T06:26:16;13.48;;;4.25;;
49826;SDS011;35715;51.570;6.036;2023-06-14T06:28:42;6.32;;;2.92;;
49826;SDS011;35715;51.570;6.036;2023-06-14T06:31:07;9.10;;;3.47;;
49826;SDS011;35715;51.570;6.036;2023-06-14T06:37:19;7.80;;;3.47;;
49826;SDS011;35715;51.570;6.036;2023-06-14T06:39:45;6.82;;;3.80;;
49826;SDS011;35715;51.570;6.036;2023-06-14T06:42:11;4.45;;;3.53;;
49826;SDS011;35715;51.570;6.036;2023-06-14T06:44:37;7.68;;;3.33;;
49826;SDS011;35715;51.570;6.036;2023-06-14T06:49:48;7.13;;;2.83;;
49826;SDS011;35715;51.570;6.036;2023-06-14T06:52:13;20.85;;;3.90;;
49826;SDS011;35715;51.570;6.036;2023-06-14T06:54:38;5.20;;;2.60;;
49826;SDS011;35715;51.570;6.036;2023-06-14T06:57:22;6.80;;;3.63;;
49826;SDS011;35715;51.570;6.036;2023-06-14T06:59:48;4.88;;;2.72;;
49826;SDS011;35715;51.570;6.036;2023-06-14T07:02:22;5.88;;;3.55;;
49826;SDS011;35715;51.570;6.036;2023-06-14T07:04:47;9.32;;;3.17;;
49826;SDS011;35715;51.570;6.036;2023-06-14T07:07:12;5.07;;;3.08;;
49826;SDS011;35715;51.570;6.036;2023-06-14T07:09:38;3.30;;;2.63;;
49826;SDS011;35715;51.570;6.036;2023-06-14T07:12:19;6.35;;;2.25;;
49826;SDS011;35715;51.570;6.036;2023-06-14T07:14:45;3.97;;;2.78;;
49826;SDS011;35715;51.570;6.036;2023-06-14T07:17:10;6.40;;;2.92;;
49826;SDS011;35715;51.570;6.036;2023-06-14T07:22:57;14.52;;;3.42;;
49826;SDS011;35715;51.570;6.036;2023-06-14T07:25:22;7.63;;;3.22;;
49826;SDS011;35715;51.570;6.036;2023-06-14T07:30:32;5.13;;;2.22;;
49826;SDS011;35715;51.570;6.036;2023-06-14T07:32:58;3.80;;;2.47;;
49826;SDS011;35715;51.570;6.036;2023-06-14T07:35:25;11.95;;;2.30;;
49826;SDS011;35715;51.570;6.036;2023-06-14T07:37:50;4.22;;;2.13;;
49826;SDS011;35715;51.570;6.036;2023-06-14T07:40:15;3.90;;;2.65;;
49826;SDS011;35715;51.570;6.036;2023-06-14T07:45:41;4.75;;;2.30;;
49826;SDS011;35715;51.570;6.036;2023-06-14T07:48:07;5.25;;;2.25;;
49826;SDS011;35715;51.570;6.036;2023-06-14T07:50:32;3.70;;;1.50;;
49826;SDS011;35715;51.570;6.036;2023-06-14T07:52:57;6.88;;;1.85;;
49826;SDS011;35715;51.570;6.036;2023-06-14T07:55:23;2.17;;;1.50;;
49826;SDS011;35715;51.570;6.036;2023-06-14T07:57:50;3.72;;;1.67;;
49826;SDS011;35715;51.570;6.036;2023-06-14T08:00:15;3.53;;;1.50;;
49826;SDS011;35715;51.570;6.036;2023-06-14T08:02:45;4.32;;;1.48;;
49826;SDS011;35715;51.570;6.036;2023-06-14T08:05:11;1.90;;;1.30;;
49826;SDS011;35715;51.570;6.036;2023-06-14T08:07:37;4.22;;;1.20;;
49826;SDS011;35715;51.570;6.036;2023-06-14T08:10:06;8.20;;;1.10;;
49826;SDS011;35715;51.570;6.036;2023-06-14T08:12:32;8.45;;;1.50;;
49826;SDS011;35715;51.570;6.036;2023-06-14T08:14:59;2.30;;;1.15;;
49826;SDS011;35715;51.570;6.036;2023-06-14T08:17:43;1.10;;;1.10;;
49826;SDS011;35715;51.570;6.036;2023-06-14T08:20:27;7.88;;;1.65;;
49826;SDS011;35715;51.570;6.036;2023-06-14T08:25:45;3.67;;;1.52;;
49826;SDS011;35715;51.570;6.036;2023-06-14T08:28:29;2.38;;;1.20;;
49826;SDS011;35715;51.570;6.036;2023-06-14T08:30:55;8.67;;;2.27;;
49826;SDS011;35715;51.570;6.036;2023-06-14T08:33:22;1.13;;;1.13;;
49826;SDS011;35715;51.570;6.036;2023-06-14T08:35:47;4.03;;;1.17;;
49826;SDS011;35715;51.570;6.036;2023-06-14T08:38:12;2.70;;;1.50;;
49826;SDS011;35715;51.570;6.036;2023-06-14T08:40:38;1.38;;;1.27;;
49826;SDS011;35715;51.570;6.036;2023-06-14T08:43:27;1.88;;;1.30;;
49826;SDS011;35715;51.570;6.036;2023-06-14T08:45:53;2.10;;;1.50;;
49826;SDS011;35715;51.570;6.036;2023-06-14T08:48:26;2.10;;;1.90;;
49826;SDS011;35715;51.570;6.036;2023-06-14T08:50:53;3.42;;;2.38;;
49826;SDS011;35715;51.570;6.036;2023-06-14T08:53:29;1.88;;;1.77;;
49826;SDS011;35715;51.570;6.036;2023-06-14T08:56:02;2.55;;;1.73;;
49826;SDS011;35715;51.570;6.036;2023-06-14T08:58:47;1.73;;;1.45;;
49826;SDS011;35715;51.570;6.036;2023-06-14T09:01:14;2.88;;;1.13;;
49826;SDS011;35715;51.570;6.036;2023-06-14T09:03:47;1.58;;;1.48;;
49826;SDS011;35715;51.570;6.036;2023-06-14T09:06:13;13.95;;;1.45;;
49826;SDS011;35715;51.570;6.036;2023-06-14T09:08:43;16.55;;;2.15;;
49826;SDS011;35715;51.570;6.036;2023-06-14T09:11:13;1.38;;;1.27;;
49826;SDS011;35715;51.570;6.036;2023-06-14T09:16:25;3.25;;;1.40;;
49826;SDS011;35715;51.570;6.036;2023-06-14T09:18:51;2.47;;;1.85;;
49826;SDS011;35715;51.570;6.036;2023-06-14T09:21:16;2.73;;;1.93;;
49826;SDS011;35715;51.570;6.036;2023-06-14T09:23:45;1.55;;;1.45;;
49826;SDS011;35715;51.570;6.036;2023-06-14T09:28:48;1.95;;;1.73;;
49826;SDS011;35715;51.570;6.036;2023-06-14T09:31:20;5.00;;;1.92;;
49826;SDS011;35715;51.570;6.036;2023-06-14T09:36:22;4.07;;;1.55;;
49826;SDS011;35715;51.570;6.036;2023-06-14T09:38:54;3.53;;;1.92;;
49826;SDS011;35715;51.570;6.036;2023-06-14T09:41:40;1.65;;;1.55;;
49826;SDS011;35715;51.570;6.036;2023-06-14T09:44:10;4.30;;;2.20;;
49826;SDS011;35715;51.570;6.036;2023-06-14T09:46:37;4.05;;;1.90;;
49826;SDS011;35715;51.570;6.036;2023-06-14T09:49:21;1.40;;;1.30;;
49826;SDS011;35715;51.570;6.036;2023-06-14T09:51:48;1.05;;;1.05;;
49826;SDS011;35715;51.570;6.036;2023-06-14T09:54:16;5.60;;;2.45;;
49826;SDS011;35715;51.570;6.036;2023-06-14T09:56:49;2.45;;;2.00;;
49826;SDS011;35715;51.570;6.036;2023-06-14T09:59:19;2.15;;;1.65;;
49826;SDS011;35715;51.570;6.036;2023-06-14T10:02:06;2.20;;;1.20;;
49826;SDS011;35715;51.570;6.036;2023-06-14T10:10:24;1.63;;;1.52;;
49826;SDS011;35715;51.570;6.036;2023-06-14T10:13:03;3.00;;;1.92;;
49826;SDS011;35715;51.570;6.036;2023-06-14T10:21:13;1.20;;;1.10;;
49826;SDS011;35715;51.570;6.036;2023-06-14T10:23:48;2.28;;;0.90;;
49826;SDS011;35715;51.570;6.036;2023-06-14T10:26:22;6.38;;;1.33;;
49826;SDS011;35715;51.570;6.036;2023-06-14T10:28:55;1.55;;;1.20;;
49826;SDS011;35715;51.570;6.036;2023-06-14T10:34:22;4.22;;;1.30;;
49826;SDS011;35715;51.570;6.036;2023-06-14T10:37:01;5.25;;;1.15;;
49826;SDS011;35715;51.570;6.036;2023-06-14T10:39:29;3.95;;;1.88;;
49826;SDS011;35715;51.570;6.036;2023-06-14T10:41:55;2.42;;;1.52;;
49826;SDS011;35715;51.570;6.036;2023-06-14T10:46:47;9.03;;;1.73;;
49826;SDS011;35715;51.570;6.036;2023-06-14T10:49:19;2.83;;;1.38;;
49826;SDS011;35715;51.570;6.036;2023-06-14T10:52:05;3.60;;;1.38;;
49826;SDS011;35715;51.570;6.036;2023-06-14T10:54:31;1.40;;;1.30;;
49826;SDS011;35715;51.570;6.036;2023-06-14T10:56:56;2.85;;;1.50;;
49826;SDS011;35715;51.570;6.036;2023-06-14T10:59:24;4.40;;;1.75;;
49826;SDS011;35715;51.570;6.036;2023-06-14T11:04:52;1.70;;;1.60;;
49826;SDS011;35715;51.570;6.036;2023-06-14T11:12:42;1.85;;;1.40;;
49826;SDS011;35715;51.570;6.036;2023-06-14T11:15:12;2.80;;;1.30;;
49826;SDS011;35715;51.570;6.036;2023-06-14T11:17:37;6.03;;;1.98;;
49826;SDS011;35715;51.570;6.036;2023-06-14T11:22:50;1.13;;;1.10;;
49826;SDS011;35715;51.570;6.036;2023-06-14T11:25:16;1.35;;;1.25;;
49826;SDS011;35715;51.570;6.036;2023-06-14T11:27:41;3.45;;;1.20;;
49826;SDS011;35715;51.570;6.036;2023-06-14T11:30:08;2.38;;;1.63;;
49826;SDS011;35715;51.570;6.036;2023-06-14T11:32:40;4.53;;;1.35;;
49826;SDS011;35715;51.570;6.036;2023-06-14T11:35:05;3.20;;;1.48;;
49826;SDS011;35715;51.570;6.036;2023-06-14T11:37:32;4.30;;;1.55;;
49826;SDS011;35715;51.570;6.036;2023-06-14T11:40:02;1.90;;;1.00;;
49826;SDS011;35715;51.570;6.036;2023-06-14T11:42:35;3.60;;;1.15;;
49826;SDS011;35715;51.570;6.036;2023-06-14T11:45:01;5.57;;;1.42;;
49826;SDS011;35715;51.570;6.036;2023-06-14T11:47:31;5.40;;;1.35;;
49826;SDS011;35715;51.570;6.036;2023-06-14T11:49:58;1.40;;;1.15;;
49826;SDS011;35715;51.570;6.036;2023-06-14T11:52:25;3.42;;;1.23;;
49826;SDS011;35715;51.570;6.036;2023-06-14T11:54:50;16.70;;;2.10;;
49826;SDS011;35715;51.570;6.036;2023-06-14T11:57:17;1.35;;;1.13;;
49826;SDS011;35715;51.570;6.036;2023-06-14T11:59:44;4.28;;;1.20;;
49826;SDS011;35715;51.570;6.036;2023-06-14T12:02:14;2.08;;;1.92;;
49826;SDS011;35715;51.570;6.036;2023-06-14T12:12:24;1.90;;;1.23;;
49826;SDS011;35715;51.570;6.036;2023-06-14T12:14:52;1.38;;;1.30;;
49826;SDS011;35715;51.570;6.036;2023-06-14T12:17:18;4.50;;;1.50;;
49826;SDS011;35715;51.570;6.036;2023-06-14T12:19:44;5.43;;;1.73;;
49826;SDS011;35715;51.570;6.036;2023-06-14T12:22:31;1.33;;;1.08;;
49826;SDS011;35715;51.570;6.036;2023-06-14T12:24:56;2.00;;;1.23;;
49826;SDS011;35715;51.570;6.036;2023-06-14T12:27:22;4.50;;;1.38;;
49826;SDS011;35715;51.570;6.036;2023-06-14T12:29:58;3.00;;;1.15;;
49826;SDS011;35715;51.570;6.036;2023-06-14T12:32:31;2.55;;;1.20;;
49826;SDS011;35715;51.570;6.036;2023-06-14T12:34:56;4.20;;;1.42;;
49826;SDS011;35715;51.570;6.036;2023-06-14T12:37:21;19.13;;;1.35;;
49826;SDS011;35715;51.570;6.036;2023-06-14T12:39:47;1.33;;;1.23;;
49826;SDS011;35715;51.570;6.036;2023-06-14T12:42:12;9.05;;;1.73;;
49826;SDS011;35715;51.570;6.036;2023-06-14T12:44:39;1.63;;;0.70;;
49826;SDS011;35715;51.570;6.036;2023-06-14T12:47:23;1.20;;;1.00;;
49826;SDS011;35715;51.570;6.036;2023-06-14T12:49:48;6.70;;;1.48;;
49826;SDS011;35715;51.570;6.036;2023-06-14T12:52:19;1.85;;;0.80;;
49826;SDS011;35715;51.570;6.036;2023-06-14T12:54:44;3.42;;;0.88;;
49826;SDS011;35715;51.570;6.036;2023-06-14T12:57:10;15.98;;;1.65;;
49826;SDS011;35715;51.570;6.036;2023-06-14T13:02:21;2.97;;;1.17;;
49826;SDS011;35715;51.570;6.036;2023-06-14T13:04:48;2.42;;;1.08;;
49826;SDS011;35715;51.570;6.036;2023-06-14T13:07:14;1.15;;;1.05;;
49826;SDS011;35715;51.570;6.036;2023-06-14T13:09:40;3.97;;;0.70;;
49826;SDS011;35715;51.570;6.036;2023-06-14T13:12:25;1.30;;;1.20;;
49826;SDS011;35715;51.570;6.036;2023-06-14T13:14:50;11.57;;;1.40;;
49826;SDS011;35715;51.570;6.036;2023-06-14T13:17:16;1.00;;;0.88;;
49826;SDS011;35715;51.570;6.036;2023-06-14T13:19:42;4.15;;;1.20;;
49826;SDS011;35715;51.570;6.036;2023-06-14T13:22:08;1.77;;;0.85;;
49826;SDS011;35715;51.570;6.036;2023-06-14T13:24:34;1.70;;;0.98;;
49826;SDS011;35715;51.570;6.036;2023-06-14T13:26:59;0.98;;;0.77;;
49826;SDS011;35715;51.570;6.036;2023-06-14T13:29:25;1.63;;;1.27;;
49826;SDS011;35715;51.570;6.036;2023-06-14T13:31:51;1.88;;;0.98;;
49826;SDS011;35715;51.570;6.036;2023-06-14T13:34:35;2.28;;;1.13;;
49826;SDS011;35715;51.570;6.036;2023-06-14T13:37:01;4.00;;;0.90;;
49826;SDS011;35715;51.570;6.036;2023-06-14T13:39:26;1.25;;;1.15;;
49826;SDS011;35715;51.570;6.036;2023-06-14T13:41:51;2.72;;;0.88;;
49826;SDS011;35715;51.570;6.036;2023-06-14T13:44:17;7.43;;;1.05;;
49826;SDS011;35715;51.570;6.036;2023-06-14T13:46:44;6.00;;;1.52;;
49826;SDS011;35715;51.570;6.036;2023-06-14T13:49:09;5.07;;;1.35;;
49826;SDS011;35715;51.570;6.036;2023-06-14T13:51:35;1.70;;;0.75;;
49826;SDS011;35715;51.570;6.036;2023-06-14T13:54:03;6.18;;;1.27;;
49826;SDS011;35715;51.570;6.036;2023-06-14T13:56:28;2.65;;;1.00;;
49826;SDS011;35715;51.570;6.036;2023-06-14T13:58:56;4.80;;;1.00;;
49826;SDS011;35715;51.570;6.036;2023-06-14T14:01:21;9.38;;;1.30;;
49826;SDS011;35715;51.570;6.036;2023-06-14T14:03:53;2.95;;;1.38;;
49826;SDS011;35715;51.570;6.036;2023-06-14T14:06:19;1.08;;;0.98;;
49826;SDS011;35715;51.570;6.036;2023-06-14T14:08:44;2.17;;;1.70;;
49826;SDS011;35715;51.570;6.036;2023-06-14T14:11:09;2.38;;;0.90;;
49826;SDS011;35715;51.570;6.036;2023-06-14T14:13:36;3.30;;;1.20;;
49826;SDS011;35715;51.570;6.036;2023-06-14T14:16:20;3.08;;;1.00;;
49826;SDS011;35715;51.570;6.036;2023-06-14T14:18:45;6.82;;;1.45;;
49826;SDS011;35715;51.570;6.036;2023-06-14T14:21:11;0.82;;;0.82;;
49826;SDS011;35715;51.570;6.036;2023-06-14T14:26:07;4.90;;;1.90;;
49826;SDS011;35715;51.570;6.036;2023-06-14T14:28:32;5.65;;;1.30;;
49826;SDS011;35715;51.570;6.036;2023-06-14T14:30:58;1.65;;;0.80;;
49826;SDS011;35715;51.570;6.036;2023-06-14T14:33:28;3.92;;;0.80;;
49826;SDS011;35715;51.570;6.036;2023-06-14T14:35:53;1.10;;;1.00;;
49826;SDS011;35715;51.570;6.036;2023-06-14T14:38:19;1.15;;;1.13;;
49826;SDS011;35715;51.570;6.036;2023-06-14T14:40:44;1.65;;;1.00;;
49826;SDS011;35715;51.570;6.036;2023-06-14T14:45:57;3.22;;;1.50;;
49826;SDS011;35715;51.570;6.036;2023-06-14T14:48:22;2.35;;;0.90;;
49826;SDS011;35715;51.570;6.036;2023-06-14T14:51:06;2.55;;;1.10;;
49826;SDS011;35715;51.570;6.036;2023-06-14T14:53:32;3.88;;;1.33;;
49826;SDS011;35715;51.570;6.036;2023-06-14T14:55:58;2.70;;;1.20;;
49826;SDS011;35715;51.570;6.036;2023-06-14T14:58:23;7.05;;;1.27;;
49826;SDS011;35715;51.570;6.036;2023-06-14T15:00:49;2.47;;;1.70;;
49826;SDS011;35715;51.570;6.036;2023-06-14T15:03:15;1.08;;;1.05;;
49826;SDS011;35715;51.570;6.036;2023-06-14T15:05:40;12.60;;;1.77;;
49826;SDS011;35715;51.570;6.036;2023-06-14T15:08:24;1.85;;;1.10;;
49826;SDS011;35715;51.570;6.036;2023-06-14T15:10:50;1.48;;;1.38;;
49826;SDS011;35715;51.570;6.036;2023-06-14T15:13:29;3.33;;;1.33;;
49826;SDS011;35715;51.570;6.036;2023-06-14T15:15:55;1.45;;;1.35;;
49826;SDS011;35715;51.570;6.036;2023-06-14T15:18:20;2.78;;;0.95;;
49826;SDS011;35715;51.570;6.036;2023-06-14T15:20:46;7.38;;;2.03;;
49826;SDS011;35715;51.570;6.036;2023-06-14T15:23:12;2.42;;;1.10;;
49826;SDS011;35715;51.570;6.036;2023-06-14T15:36:57;3.03;;;1.90;;
49826;SDS011;35715;51.570;6.036;2023-06-14T15:39:23;2.03;;;1.67;;
49826;SDS011;35715;51.570;6.036;2023-06-14T15:44:34;6.75;;;1.90;;
49826;SDS011;35715;51.570;6.036;2023-06-14T15:47:01;6.97;;;1.98;;
49826;SDS011;35715;51.570;6.036;2023-06-14T15:49:27;1.17;;;1.13;;
49826;SDS011;35715;51.570;6.036;2023-06-14T15:54:22;6.95;;;1.60;;
49826;SDS011;35715;51.570;6.036;2023-06-14T15:56:47;1.90;;;1.80;;
49826;SDS011;35715;51.570;6.036;2023-06-14T15:59:14;1.70;;;1.60;;
49826;SDS011;35715;51.570;6.036;2023-06-14T16:01:39;5.22;;;2.10;;
49826;SDS011;35715;51.570;6.036;2023-06-14T16:04:15;3.13;;;1.60;;
49826;SDS011;35715;51.570;6.036;2023-06-14T16:06:40;2.78;;;1.60;;
49826;SDS011;35715;51.570;6.036;2023-06-14T16:09:06;3.15;;;1.75;;
49826;SDS011;35715;51.570;6.036;2023-06-14T16:11:31;3.47;;;1.73;;
49826;SDS011;35715;51.570;6.036;2023-06-14T16:14:03;5.47;;;2.13;;
49826;SDS011;35715;51.570;6.036;2023-06-14T16:16:29;3.63;;;2.45;;
49826;SDS011;35715;51.570;6.036;2023-06-14T16:18:54;1.60;;;1.50;;
49826;SDS011;35715;51.570;6.036;2023-06-14T16:21:20;4.00;;;1.80;;
49826;SDS011;35715;51.570;6.036;2023-06-14T16:23:49;4.53;;;2.10;;
49826;SDS011;35715;51.570;6.036;2023-06-14T16:26:15;3.30;;;2.20;;
49826;SDS011;35715;51.570;6.036;2023-06-14T16:28:41;4.05;;;1.92;;
49826;SDS011;35715;51.570;6.036;2023-06-14T16:31:07;9.73;;;2.58;;
49826;SDS011;35715;51.570;6.036;2023-06-14T16:33:44;4.60;;;1.90;;
49826;SDS011;35715;51.570;6.036;2023-06-14T16:36:11;4.68;;;2.00;;
49826;SDS011;35715;51.570;6.036;2023-06-14T16:41:22;13.75;;;2.30;;
49826;SDS011;35715;51.570;6.036;2023-06-14T16:43:49;7.80;;;2.47;;
49826;SDS011;35715;51.570;6.036;2023-06-14T16:46:15;2.90;;;1.50;;
49826;SDS011;35715;51.570;6.036;2023-06-14T16:48:53;2.47;;;2.28;;
49826;SDS011;35715;51.570;6.036;2023-06-14T16:51:37;11.95;;;1.98;;
49826;SDS011;35715;51.570;6.036;2023-06-14T16:56:34;4.43;;;2.40;;
49826;SDS011;35715;51.570;6.036;2023-06-14T16:59:00;5.72;;;1.80;;
49826;SDS011;35715;51.570;6.036;2023-06-14T17:01:25;1.88;;;1.77;;
49826;SDS011;35715;51.570;6.036;2023-06-14T17:03:52;2.55;;;1.85;;
49826;SDS011;35715;51.570;6.036;2023-06-14T17:06:18;2.67;;;2.30;;
49826;SDS011;35715;51.570;6.036;2023-06-14T17:08:45;2.58;;;2.13;;